Time;durP1;ratioP1;P1;durP2;ratioP2;P2;SDS_P1;SDS_P2;PMS_P1;PMS_P2;Temp;Humidity;BMP_temperature;BMP_pressure;BME280_temperature;BME280_humidity;BME280_pressure;Samples;Min_cycle;Max_cycle;Signal;HPM_P1;HPM_P2
2021/11/27 00:00:53;;;;;;;;;;;3.90;99.90;;;;;;5066411;28;20314;-75
2021/11/27 00:03:19;;;;;;;;;;;3.90;99.90;;;;;;5045505;28;19913;-75
2021/11/27 00:05:45;;;;;;;;;;;3.90;99.90;;;;;;5054080;28;19913;-75
2021/11/27 00:08:13;;;;;;;;;;;3.90;99.90;;;;;;5052196;28;19936;-75
2021/11/27 00:10:40;;;;;;;;;;;3.90;99.90;;;;;;5049214;28;19916;-76
2021/11/27 00:13:06;;;;;;;;;;;3.80;99.90;;;;;;5064031;28;19961;-75
2021/11/27 00:15:32;;;;;;;;;;;3.80;99.90;;;;;;5049666;28;19912;-75
2021/11/27 00:17:58;;;;;;;;;;;3.80;99.90;;;;;;5057613;28;19921;-75
2021/11/27 00:20:26;;;;;;;;;;;3.70;99.90;;;;;;5052199;28;20259;-75
2021/11/27 00:22:52;;;;;;;;;;;3.70;99.90;;;;;;5052664;28;19917;-75
2021/11/27 00:25:18;;;;;;;;;;;3.70;99.90;;;;;;5061046;28;19974;-75
2021/11/27 00:27:43;;;;;;;;;;;3.60;99.90;;;;;;5059111;28;19920;-75
2021/11/27 00:30:11;;;;;;;;;;;3.60;99.90;;;;;;5053182;28;19924;-75
2021/11/27 00:32:37;;;;;;;;;;;3.60;99.90;;;;;;5048591;28;19912;-75
2021/11/27 00:35:03;;;;;;;;;;;3.60;99.90;;;;;;5059752;28;20376;-76
2021/11/27 00:37:29;;;;;;;;;;;3.60;99.90;;;;;;5045015;28;19924;-75
2021/11/27 00:39:54;;;;;;;;;;;3.50;99.90;;;;;;5047253;28;20228;-76
2021/11/27 00:42:20;;;;;;;;;;;3.50;99.90;;;;;;5055103;28;19923;-76
2021/11/27 00:44:45;;;;;;;;;;;3.60;99.90;;;;;;5040425;28;21546;-75
2021/11/27 00:47:11;;;;;;;;;;;3.50;99.90;;;;;;5052577;28;19966;-75
2021/11/27 00:49:37;;;;;;;;;;;3.50;99.90;;;;;;5054886;28;19919;-76
2021/11/27 00:52:02;;;;;;;;;;;3.50;99.90;;;;;;5050113;28;20008;-75
2021/11/27 00:54:28;;;;;;;;;;;3.60;99.90;;;;;;5053462;28;19922;-75
2021/11/27 00:56:54;;;;;;;;;;;3.60;99.90;;;;;;5059792;28;19962;-76
2021/11/27 00:59:20;;;;;;;;;;;3.50;99.90;;;;;;5044766;28;19957;-76
2021/11/27 01:01:45;;;;;;;;;;;3.60;99.90;;;;;;5042008;28;20341;-76
2021/11/27 01:04:11;;;;;;;;;;;3.60;99.90;;;;;;5064399;28;20227;-78
2021/11/27 01:06:37;;;;;;;;;;;3.50;99.90;;;;;;5046210;28;19959;-75
2021/11/27 01:09:05;;;;;;;;;;;3.60;99.90;;;;;;5053824;28;19930;-75
2021/11/27 01:11:32;;;;;;;;;;;3.60;99.90;;;;;;5055442;28;19936;-75
2021/11/27 01:14:04;;;;;;;;;;;3.60;99.90;;;;;;5052546;28;20394;-76
2021/11/27 01:16:31;;;;;;;;;;;3.60;99.90;;;;;;5041097;28;20011;-76
2021/11/27 01:18:57;;;;;;;;;;;3.60;99.90;;;;;;5048059;28;19920;-76
2021/11/27 01:21:24;;;;;;;;;;;3.60;99.90;;;;;;5058791;28;19913;-75
2021/11/27 01:23:52;;;;;;;;;;;3.60;99.90;;;;;;5061346;28;19909;-76
2021/11/27 01:26:18;;;;;;;;;;;3.70;99.90;;;;;;5052893;28;19917;-75
2021/11/27 01:28:43;;;;;;;;;;;3.70;99.90;;;;;;5059357;28;20213;-76
2021/11/27 01:31:10;;;;;;;;;;;3.70;99.90;;;;;;5057363;28;19914;-77
2021/11/27 01:33:35;;;;;;;;;;;3.70;99.90;;;;;;5042621;28;20032;-75
2021/11/27 01:36:02;;;;;;;;;;;3.70;99.90;;;;;;5069261;28;20015;-76
2021/11/27 01:38:28;;;;;;;;;;;3.70;99.90;;;;;;5053428;28;19931;-76
2021/11/27 01:40:54;;;;;;;;;;;3.70;99.90;;;;;;5064261;28;20639;-76
2021/11/27 01:43:20;;;;;;;;;;;3.70;99.90;;;;;;5049230;28;20007;-76
2021/11/27 01:45:48;;;;;;;;;;;3.70;99.90;;;;;;5047280;28;19959;-75
2021/11/27 01:48:15;;;;;;;;;;;3.70;99.90;;;;;;5052748;28;20188;-76
2021/11/27 01:50:45;;;;;;;;;;;3.70;99.90;;;;;;5040494;28;21253;-76
2021/11/27 01:53:11;;;;;;;;;;;3.70;99.90;;;;;;5047361;28;19970;-76
2021/11/27 01:55:37;;;;;;;;;;;3.70;99.90;;;;;;5047311;28;20227;-77
2021/11/27 01:58:03;;;;;;;;;;;3.80;99.90;;;;;;5056942;28;19919;-76
2021/11/27 02:00:31;;;;;;;;;;;3.80;99.90;;;;;;5047251;28;19914;-75
2021/11/27 02:02:57;;;;;;;;;;;3.70;99.90;;;;;;5051849;28;19959;-76
2021/11/27 02:05:23;;;;;;;;;;;3.70;99.90;;;;;;5045595;28;20288;-76
2021/11/27 02:07:49;;;;;;;;;;;3.70;99.90;;;;;;5039703;28;19935;-75
2021/11/27 02:10:16;;;;;;;;;;;3.70;99.90;;;;;;5050830;28;19971;-76
2021/11/27 02:12:43;;;;;;;;;;;3.70;99.90;;;;;;5071418;28;20278;-76
2021/11/27 02:15:09;;;;;;;;;;;3.70;99.90;;;;;;5049732;28;19917;-75
2021/11/27 02:17:35;;;;;;;;;;;3.70;99.90;;;;;;5060712;28;19927;-75
2021/11/27 02:20:00;;;;;;;;;;;3.70;99.90;;;;;;5052723;28;19916;-76
2021/11/27 02:22:26;;;;;;;;;;;3.70;99.90;;;;;;5045614;28;19915;-75
2021/11/27 02:24:51;;;;;;;;;;;3.60;99.90;;;;;;5051328;28;19913;-75
2021/11/27 02:27:18;;;;;;;;;;;3.60;99.90;;;;;;5053021;28;19913;-75
2021/11/27 02:29:44;;;;;;;;;;;3.50;99.90;;;;;;5051443;28;20000;-75
2021/11/27 02:32:10;;;;;;;;;;;3.60;99.90;;;;;;5051382;28;20236;-76
2021/11/27 02:34:36;;;;;;;;;;;3.60;99.90;;;;;;5041706;28;19928;-76
2021/11/27 02:37:03;;;;;;;;;;;3.60;99.90;;;;;;5057922;28;20031;-75
2021/11/27 02:39:29;;;;;;;;;;;3.60;99.90;;;;;;5053978;28;19913;-75
2021/11/27 02:41:55;;;;;;;;;;;3.60;99.90;;;;;;5038760;28;19916;-75
2021/11/27 02:44:24;;;;;;;;;;;3.60;99.90;;;;;;5058924;28;19916;-75
2021/11/27 02:46:50;;;;;;;;;;;3.60;99.90;;;;;;5057912;28;19966;-76
2021/11/27 02:49:16;;;;;;;;;;;3.60;99.90;;;;;;5053408;28;19966;-75
2021/11/27 02:51:41;;;;;;;;;;;3.60;99.90;;;;;;5053999;28;19909;-75
2021/11/27 02:54:07;;;;;;;;;;;3.60;99.90;;;;;;5051995;28;19912;-76
2021/11/27 02:56:33;;;;;;;;;;;3.50;99.90;;;;;;5044386;28;19925;-75
2021/11/27 02:59:07;;;;;;;;;;;3.60;99.90;;;;;;5060779;28;19916;-75
2021/11/27 03:01:33;;;;;;;;;;;3.50;99.90;;;;;;5055168;28;20000;-75
2021/11/27 03:03:58;;;;;;;;;;;3.60;99.90;;;;;;5056226;28;20004;-75
2021/11/27 03:06:25;;;;;;;;;;;3.60;99.90;;;;;;5044403;28;20303;-75
2021/11/27 03:08:50;;;;;;;;;;;3.50;99.90;;;;;;5048188;28;19962;-75
2021/11/27 03:11:16;;;;;;;;;;;3.60;99.90;;;;;;5040760;28;19912;-75
2021/11/27 03:13:42;;;;;;;;;;;3.60;99.90;;;;;;5059866;28;19920;-75
2021/11/27 03:16:07;;;;;;;;;;;3.60;99.90;;;;;;5054192;28;19913;-85
2021/11/27 03:18:33;;;;;;;;;;;3.60;99.90;;;;;;5059470;28;20358;-75
2021/11/27 03:20:59;;;;;;;;;;;3.60;99.90;;;;;;5044394;28;20337;-75
2021/11/27 03:23:26;;;;;;;;;;;3.60;99.90;;;;;;5050722;28;20414;-75
2021/11/27 03:25:51;;;;;;;;;;;3.60;99.90;;;;;;5046325;28;19991;-75
2021/11/27 03:28:17;;;;;;;;;;;3.60;99.90;;;;;;5069216;28;20520;-75
2021/11/27 03:30:43;;;;;;;;;;;3.60;99.90;;;;;;5065259;28;19908;-75
2021/11/27 03:33:09;;;;;;;;;;;3.60;99.90;;;;;;5057110;28;19952;-75
2021/11/27 03:35:35;;;;;;;;;;;3.60;99.90;;;;;;5048108;28;19925;-75
2021/11/27 03:38:00;;;;;;;;;;;3.60;99.90;;;;;;5048310;28;19924;-75
2021/11/27 03:40:26;;;;;;;;;;;3.60;99.90;;;;;;5052103;28;20010;-75
2021/11/27 03:42:52;;;;;;;;;;;3.50;99.90;;;;;;5073149;28;19917;-75
2021/11/27 03:45:19;;;;;;;;;;;3.50;99.90;;;;;;5041083;28;19924;-75
2021/11/27 03:48:08;;;;;;;;;;;3.50;99.90;;;;;;5048279;28;19909;-75
2021/11/27 03:50:39;;;;;;;;;;;3.50;99.90;;;;;;5056555;28;19913;-75
2021/11/27 03:53:05;;;;;;;;;;;3.50;99.90;;;;;;5055707;28;19920;-75
2021/11/27 03:55:30;;;;;;;;;;;3.50;99.90;;;;;;5065519;28;19920;-76
2021/11/27 03:57:56;;;;;;;;;;;3.50;99.90;;;;;;5045726;28;19924;-75
2021/11/27 04:00:22;;;;;;;;;;;3.60;99.90;;;;;;5058832;28;19918;-75
2021/11/27 04:02:48;;;;;;;;;;;3.50;99.90;;;;;;5055949;28;20011;-75
2021/11/27 04:05:14;;;;;;;;;;;3.60;99.90;;;;;;5060776;28;19913;-75
2021/11/27 04:07:39;;;;;;;;;;;3.60;99.90;;;;;;5038501;28;19992;-75
2021/11/27 04:10:05;;;;;;;;;;;3.50;99.90;;;;;;5061036;28;20011;-75
2021/11/27 04:12:31;;;;;;;;;;;3.50;99.90;;;;;;5048893;28;19917;-75
2021/11/27 04:14:57;;;;;;;;;;;3.50;99.90;;;;;;5048387;28;20003;-76
2021/11/27 04:17:22;;;;;;;;;;;3.50;99.90;;;;;;5046350;28;20409;-75
2021/11/27 04:19:48;;;;;;;;;;;3.50;99.90;;;;;;5050804;28;19925;-75
2021/11/27 04:22:13;;;;;;;;;;;3.50;99.90;;;;;;5055418;28;19916;-76
2021/11/27 04:24:39;;;;;;;;;;;3.50;99.90;;;;;;5049045;28;19921;-75
2021/11/27 04:27:05;;;;;;;;;;;3.50;99.90;;;;;;5041178;28;19963;-75
2021/11/27 04:29:31;;;;;;;;;;;3.40;99.90;;;;;;5050910;28;20641;-75
2021/11/27 04:31:57;;;;;;;;;;;3.50;99.90;;;;;;5064088;28;19920;-75
2021/11/27 04:34:23;;;;;;;;;;;3.50;99.90;;;;;;5055588;28;20027;-76
2021/11/27 04:36:48;;;;;;;;;;;3.50;99.90;;;;;;5039390;28;19932;-75
2021/11/27 04:39:14;;;;;;;;;;;3.50;99.90;;;;;;5053395;28;19945;-75
2021/11/27 04:41:39;;;;;;;;;;;3.50;99.90;;;;;;5048973;28;20018;-75
2021/11/27 04:44:05;;;;;;;;;;;3.50;99.90;;;;;;5045428;28;20369;-75
2021/11/27 04:46:30;;;;;;;;;;;3.50;99.90;;;;;;5055089;28;19912;-77
2021/11/27 04:48:56;;;;;;;;;;;3.50;99.90;;;;;;5041536;28;19913;-75
2021/11/27 04:51:22;;;;;;;;;;;3.50;99.90;;;;;;5047196;28;19909;-74
2021/11/27 04:53:47;;;;;;;;;;;3.40;99.90;;;;;;5052791;28;19939;-75
2021/11/27 04:56:13;;;;;;;;;;;3.40;99.90;;;;;;5040933;28;20184;-75
2021/11/27 04:58:38;;;;;;;;;;;3.40;99.90;;;;;;5055766;28;19913;-76
2021/11/27 05:01:04;;;;;;;;;;;3.40;99.90;;;;;;5054395;28;19924;-75
2021/11/27 05:03:29;;;;;;;;;;;3.40;99.90;;;;;;5065898;28;19908;-75
2021/11/27 05:05:55;;;;;;;;;;;3.40;99.90;;;;;;5049601;28;19928;-75
2021/11/27 05:08:21;;;;;;;;;;;3.40;99.90;;;;;;5038136;28;19913;-75
2021/11/27 05:10:46;;;;;;;;;;;3.40;99.90;;;;;;5053261;28;19951;-75
2021/11/27 05:13:12;;;;;;;;;;;3.40;99.90;;;;;;5049243;28;19913;-75
2021/11/27 05:15:38;;;;;;;;;;;3.40;99.90;;;;;;5056002;28;19924;-75
2021/11/27 05:18:04;;;;;;;;;;;3.40;99.90;;;;;;5034949;28;19919;-75
2021/11/27 05:20:29;;;;;;;;;;;3.50;99.90;;;;;;5034833;28;19913;-75
2021/11/27 05:22:55;;;;;;;;;;;3.50;99.90;;;;;;5048868;28;19924;-75
2021/11/27 05:25:21;;;;;;;;;;;3.40;99.90;;;;;;5046636;28;19951;-76
2021/11/27 05:27:46;;;;;;;;;;;3.40;99.90;;;;;;5046398;28;19959;-75
2021/11/27 05:30:12;;;;;;;;;;;3.40;99.90;;;;;;5039429;28;19932;-75
2021/11/27 05:32:50;;;;;;;;;;;3.50;99.90;;;;;;5049016;28;19917;-76
2021/11/27 05:35:16;;;;;;;;;;;3.50;99.90;;;;;;5042270;28;19925;-75
2021/11/27 05:37:43;;;;;;;;;;;3.50;99.90;;;;;;5038987;28;19920;-77
2021/11/27 05:40:10;;;;;;;;;;;3.50;99.90;;;;;;5048774;28;20014;-75
2021/11/27 05:42:36;;;;;;;;;;;3.40;99.90;;;;;;5059437;28;20225;-75
2021/11/27 05:45:02;;;;;;;;;;;3.40;99.90;;;;;;5053627;28;20046;-75
2021/11/27 05:47:27;;;;;;;;;;;3.40;99.90;;;;;;5054323;28;19983;-75
2021/11/27 05:49:53;;;;;;;;;;;3.40;99.90;;;;;;5052486;28;19953;-75
2021/11/27 05:52:19;;;;;;;;;;;3.40;99.90;;;;;;5056644;28;20326;-74
2021/11/27 05:54:45;;;;;;;;;;;3.40;99.90;;;;;;5046288;28;20618;-75
2021/11/27 05:57:11;;;;;;;;;;;3.40;99.90;;;;;;5057373;28;19921;-75
2021/11/27 05:59:37;;;;;;;;;;;3.40;99.90;;;;;;5056279;28;20307;-75
2021/11/27 06:02:03;;;;;;;;;;;3.30;99.90;;;;;;5048267;28;19920;-75
2021/11/27 06:04:28;;;;;;;;;;;3.30;99.90;;;;;;5052801;28;19921;-75
2021/11/27 06:06:54;;;;;;;;;;;3.20;99.90;;;;;;5054638;28;19912;-75
2021/11/27 06:09:20;;;;;;;;;;;3.30;99.90;;;;;;5053544;28;19913;-75
2021/11/27 06:11:46;;;;;;;;;;;3.30;99.90;;;;;;5066329;28;19917;-75
2021/11/27 06:14:11;;;;;;;;;;;3.30;99.90;;;;;;5050863;28;20218;-76
2021/11/27 06:16:37;;;;;;;;;;;3.20;99.90;;;;;;5056711;28;19920;-76
2021/11/27 06:19:03;;;;;;;;;;;3.20;99.90;;;;;;5052109;28;20338;-75
2021/11/27 06:21:29;;;;;;;;;;;3.30;99.90;;;;;;5062987;28;19928;-75
2021/11/27 06:23:55;;;;;;;;;;;3.20;99.90;;;;;;5061620;28;19913;-75
2021/11/27 06:26:21;;;;;;;;;;;3.20;99.90;;;;;;5056854;28;19917;-76
2021/11/27 06:28:46;;;;;;;;;;;3.20;99.90;;;;;;5047617;28;19928;-75
2021/11/27 06:31:13;;;;;;;;;;;3.10;99.90;;;;;;5052704;28;19913;-76
2021/11/27 06:33:38;;;;;;;;;;;3.20;99.90;;;;;;5055127;28;20253;-76
2021/11/27 06:36:04;;;;;;;;;;;3.20;99.90;;;;;;5053097;28;19916;-75
2021/11/27 06:38:30;;;;;;;;;;;3.10;99.90;;;;;;5056543;28;20610;-75
2021/11/27 06:40:56;;;;;;;;;;;3.10;99.90;;;;;;5056433;28;19913;-75
2021/11/27 06:43:21;;;;;;;;;;;3.10;99.90;;;;;;5049111;28;20017;-75
2021/11/27 06:45:47;;;;;;;;;;;3.20;99.90;;;;;;5057288;28;19916;-76
2021/11/27 06:48:12;;;;;;;;;;;3.10;99.90;;;;;;5050796;28;19913;-75
2021/11/27 06:50:38;;;;;;;;;;;3.10;99.90;;;;;;5052553;28;19913;-75
2021/11/27 06:53:04;;;;;;;;;;;3.00;99.90;;;;;;5050760;28;20274;-75
2021/11/27 06:55:29;;;;;;;;;;;3.00;99.90;;;;;;5058187;28;19959;-76
2021/11/27 06:57:55;;;;;;;;;;;3.00;99.90;;;;;;5057126;28;20226;-75
2021/11/27 07:00:20;;;;;;;;;;;3.10;99.90;;;;;;5054983;28;20297;-75
2021/11/27 07:02:46;;;;;;;;;;;3.00;99.90;;;;;;5050868;28;19921;-75
2021/11/27 07:05:12;;;;;;;;;;;3.00;99.90;;;;;;5058734;28;19955;-75
2021/11/27 07:07:37;;;;;;;;;;;3.00;99.90;;;;;;5054868;28;20334;-75
2021/11/27 07:10:04;;;;;;;;;;;3.00;99.90;;;;;;5061696;28;20003;-75
2021/11/27 07:12:30;;;;;;;;;;;3.00;99.90;;;;;;5053351;28;19914;-75
2021/11/27 07:14:55;;;;;;;;;;;3.10;99.90;;;;;;5055365;28;19923;-75
2021/11/27 07:17:21;;;;;;;;;;;3.10;99.90;;;;;;5037928;28;19916;-75
2021/11/27 07:19:47;;;;;;;;;;;3.10;99.90;;;;;;5052689;28;19952;-75
2021/11/27 07:22:12;;;;;;;;;;;3.00;99.90;;;;;;5052414;28;19917;-76
2021/11/27 07:24:38;;;;;;;;;;;3.00;99.90;;;;;;5052082;28;19920;-75
2021/11/27 07:27:06;;;;;;;;;;;3.00;99.90;;;;;;5051438;28;19927;-75
2021/11/27 07:29:34;;;;;;;;;;;3.10;99.90;;;;;;5051205;28;20311;-75
2021/11/27 07:32:00;;;;;;;;;;;3.10;99.90;;;;;;5047632;28;19948;-76
2021/11/27 07:34:25;;;;;;;;;;;3.10;99.90;;;;;;5052340;28;19959;-76
2021/11/27 07:36:51;;;;;;;;;;;3.10;99.90;;;;;;5052952;28;19928;-76
2021/11/27 07:39:17;;;;;;;;;;;3.20;99.90;;;;;;5054350;28;20288;-76
2021/11/27 07:41:42;;;;;;;;;;;3.10;99.90;;;;;;5048933;28;20327;-76
2021/11/27 07:44:08;;;;;;;;;;;3.20;99.90;;;;;;5049676;28;20014;-75
2021/11/27 07:46:34;;;;;;;;;;;3.10;99.90;;;;;;5050942;28;19917;-76
2021/11/27 07:48:59;;;;;;;;;;;3.20;99.90;;;;;;5055079;28;20228;-75
2021/11/27 07:51:25;;;;;;;;;;;3.20;99.90;;;;;;5055409;28;19916;-75
2021/11/27 07:53:51;;;;;;;;;;;3.20;99.90;;;;;;5051939;28;19924;-75
2021/11/27 07:56:16;;;;;;;;;;;3.20;99.90;;;;;;5053215;28;20023;-74
2021/11/27 07:58:42;;;;;;;;;;;3.20;99.90;;;;;;5051602;28;19913;-75
2021/11/27 08:01:07;;;;;;;;;;;3.10;99.90;;;;;;5047703;28;19916;-80
2021/11/27 08:03:33;;;;;;;;;;;3.20;99.90;;;;;;5048618;28;19920;-75
2021/11/27 08:05:59;;;;;;;;;;;3.20;99.90;;;;;;5046280;28;19920;-79
2021/11/27 08:08:25;;;;;;;;;;;3.20;99.90;;;;;;5051985;28;20287;-75
2021/11/27 08:10:50;;;;;;;;;;;3.20;99.90;;;;;;5050972;28;19927;-76
2021/11/27 08:13:16;;;;;;;;;;;3.30;99.90;;;;;;5048792;28;19936;-75
2021/11/27 08:15:41;;;;;;;;;;;3.30;99.90;;;;;;5050235;28;19913;-75
2021/11/27 08:18:07;;;;;;;;;;;3.30;99.90;;;;;;5039903;28;19924;-91
2021/11/27 08:20:34;;;;;;;;;;;3.30;99.90;;;;;;5047616;28;20302;-75
2021/11/27 08:23:00;;;;;;;;;;;3.30;99.90;;;;;;5042858;28;19913;-75
2021/11/27 08:25:25;;;;;;;;;;;3.30;99.90;;;;;;5046486;28;20015;-81
2021/11/27 08:27:51;;;;;;;;;;;3.30;99.90;;;;;;5046170;28;19967;-75
2021/11/27 08:30:16;;;;;;;;;;;3.40;99.90;;;;;;5046066;28;20319;-75
2021/11/27 08:32:47;;;;;;;;;;;3.30;99.90;;;;;;5050091;28;19917;-74
2021/11/27 08:35:12;;;;;;;;;;;3.30;99.90;;;;;;5051048;28;20266;-90
2021/11/27 08:37:38;;;;;;;;;;;3.30;99.90;;;;;;5050963;28;19921;-75
2021/11/27 08:40:06;;;;;;;;;;;3.20;99.90;;;;;;5046687;28;20272;-75
2021/11/27 08:42:32;;;;;;;;;;;3.20;99.90;;;;;;5046369;28;20003;-75
2021/11/27 08:44:58;;;;;;;;;;;3.10;99.90;;;;;;5050216;28;19959;-74
2021/11/27 08:47:23;;;;;;;;;;;3.10;99.90;;;;;;5046874;28;19952;-74
2021/11/27 08:49:49;;;;;;;;;;;3.10;99.90;;;;;;5049009;28;19913;-75
2021/11/27 08:52:15;;;;;;;;;;;3.10;99.90;;;;;;5047195;28;19942;-75
2021/11/27 08:54:40;;;;;;;;;;;3.20;99.90;;;;;;5047547;28;20223;-75
2021/11/27 08:57:06;;;;;;;;;;;3.20;99.90;;;;;;5048749;28;19963;-75
2021/11/27 08:59:32;;;;;;;;;;;3.20;99.90;;;;;;5045282;28;19914;-82
2021/11/27 09:01:58;;;;;;;;;;;3.20;99.90;;;;;;5044053;28;19920;-90
2021/11/27 09:04:23;;;;;;;;;;;3.30;99.90;;;;;;5046593;28;19979;-88
2021/11/27 09:06:49;;;;;;;;;;;3.20;99.90;;;;;;5048286;28;20338;-78
2021/11/27 09:09:15;;;;;;;;;;;3.20;99.90;;;;;;5053761;28;19923;-89
2021/11/27 09:11:41;;;;;;;;;;;3.20;99.90;;;;;;5053177;28;19927;-80
2021/11/27 09:14:07;;;;;;;;;;;3.20;99.90;;;;;;5048885;28;19912;-83
2021/11/27 09:16:33;;;;;;;;;;;3.20;99.90;;;;;;5052140;28;19924;-89
2021/11/27 09:18:59;;;;;;;;;;;3.20;99.90;;;;;;5050118;28;20003;-76
2021/11/27 09:21:26;;;;;;;;;;;3.10;99.90;;;;;;5044215;28;19913;-92
2021/11/27 09:23:52;;;;;;;;;;;3.10;99.90;;;;;;5041197;28;20342;-91
2021/11/27 09:26:17;;;;;;;;;;;3.10;99.90;;;;;;5049107;28;19956;-87
2021/11/27 09:28:43;;;;;;;;;;;3.10;99.90;;;;;;5045257;28;19940;-89
2021/11/27 09:31:08;;;;;;;;;;;3.10;99.90;;;;;;5048590;28;19920;-82
2021/11/27 09:33:34;;;;;;;;;;;3.10;99.90;;;;;;5038334;28;19913;-91
2021/11/27 09:36:08;;;;;;;;;;;3.10;99.90;;;;;;5050027;28;20300;-86
2021/11/27 09:38:35;;;;;;;;;;;3.10;99.90;;;;;;5048981;28;19920;-87
2021/11/27 09:41:16;;;;;;;;;;;3.10;99.90;;;;;;5049510;28;20270;-84
2021/11/27 09:43:42;;;;;;;;;;;3.10;99.90;;;;;;5052408;28;19920;-86
2021/11/27 09:46:08;;;;;;;;;;;3.10;99.90;;;;;;5049282;28;19914;-89
2021/11/27 09:48:36;;;;;;;;;;;3.10;99.90;;;;;;5050704;28;19912;-87
2021/11/27 09:51:02;;;;;;;;;;;3.20;99.90;;;;;;5049293;28;20327;-79
2021/11/27 09:53:27;;;;;;;;;;;3.20;99.90;;;;;;5051025;28;19912;-82
2021/11/27 09:55:53;;;;;;;;;;;3.20;99.90;;;;;;5045658;28;19921;-86
2021/11/27 09:58:21;;;;;;;;;;;3.20;99.90;;;;;;5055084;28;19917;-80
2021/11/27 10:00:47;;;;;;;;;;;3.20;99.90;;;;;;5045926;28;19917;-88
2021/11/27 10:03:13;;;;;;;;;;;3.30;99.90;;;;;;5044612;28;19917;-86
2021/11/27 10:05:38;;;;;;;;;;;3.30;99.90;;;;;;5049416;28;19924;-82
2021/11/27 10:08:04;;;;;;;;;;;3.40;99.90;;;;;;5050163;28;20330;-84
2021/11/27 10:10:29;;;;;;;;;;;3.40;99.90;;;;;;5047211;28;19913;-85
2021/11/27 10:12:55;;;;;;;;;;;3.40;99.90;;;;;;5050116;28;19924;-86
2021/11/27 10:15:21;;;;;;;;;;;3.50;99.90;;;;;;5047766;28;19921;-83
2021/11/27 10:17:48;;;;;;;;;;;3.60;99.90;;;;;;5047871;28;19920;-84
2021/11/27 10:20:15;;;;;;;;;;;3.60;99.90;;;;;;5044869;28;19913;-86
2021/11/27 10:22:42;;;;;;;;;;;3.70;99.90;;;;;;5048885;28;19921;-80
2021/11/27 10:25:27;;;;;;;;;;;3.70;99.90;;;;;;5052770;28;19923;-83
2021/11/27 10:27:53;;;;;;;;;;;3.70;99.90;;;;;;5050368;28;19969;-77
2021/11/27 10:30:19;;;;;;;;;;;3.80;99.90;;;;;;5051494;28;19948;-79
2021/11/27 10:32:45;;;;;;;;;;;3.80;99.90;;;;;;5053342;28;19956;-82
2021/11/27 10:35:16;;;;;;;;;;;3.70;99.90;;;;;;5047816;28;19929;-84
2021/11/27 10:37:41;;;;;;;;;;;3.70;99.90;;;;;;5050598;28;19917;-83
2021/11/27 10:40:09;;;;;;;;;;;3.70;99.90;;;;;;5060060;28;20011;-80
2021/11/27 10:42:35;;;;;;;;;;;3.80;99.90;;;;;;5046640;28;20272;-86
2021/11/27 10:45:09;;;;;;;;;;;3.80;99.90;;;;;;5051824;28;19917;-81
2021/11/27 10:47:35;;;;;;;;;;;3.80;99.90;;;;;;5045861;28;19999;-83
2021/11/27 10:50:05;;;;;;;;;;;3.90;99.90;;;;;;5048328;28;19944;-82
2021/11/27 10:52:36;;;;;;;;;;;3.90;99.90;;;;;;5053769;28;20230;-83
2021/11/27 10:55:13;;;;;;;;;;;3.90;99.90;;;;;;5053571;28;19919;-81
2021/11/27 10:57:39;;;;;;;;;;;3.90;99.90;;;;;;5049712;28;19928;-77
2021/11/27 11:00:07;;;;;;;;;;;3.90;99.90;;;;;;5046779;28;19913;-75
2021/11/27 11:02:34;;;;;;;;;;;3.90;99.90;;;;;;5045174;28;19917;-81
2021/11/27 11:05:03;;;;;;;;;;;3.90;99.90;;;;;;5051900;28;19924;-83
2021/11/27 11:07:30;;;;;;;;;;;3.90;99.90;;;;;;5051407;28;19921;-78
2021/11/27 11:10:08;;;;;;;;;;;3.80;99.90;;;;;;5051401;28;19913;-82
2021/11/27 11:12:38;;;;;;;;;;;3.80;99.90;;;;;;5053591;28;19921;-80
2021/11/27 11:15:08;;;;;;;;;;;3.80;99.90;;;;;;5044279;28;19917;-77
2021/11/27 11:17:34;;;;;;;;;;;3.80;99.90;;;;;;5042046;28;19917;-77
2021/11/27 11:20:11;;;;;;;;;;;3.80;99.90;;;;;;5044489;28;19947;-76
2021/11/27 11:22:37;;;;;;;;;;;3.70;99.90;;;;;;5042938;28;20246;-86
2021/11/27 11:25:11;;;;;;;;;;;3.70;99.90;;;;;;5057059;28;19943;-88
2021/11/27 11:27:37;;;;;;;;;;;3.70;99.90;;;;;;5046219;28;20304;-89
2021/11/27 11:30:05;;;;;;;;;;;3.70;99.90;;;;;;5047784;28;19995;-90
2021/11/27 11:32:31;;;;;;;;;;;3.70;99.90;;;;;;5047742;28;19936;-92
2021/11/27 11:34:58;;;;;;;;;;;3.70;99.90;;;;;;5052397;28;20011;-90
2021/11/27 11:37:24;;;;;;;;;;;3.70;99.90;;;;;;5046015;28;20266;-96
2021/11/27 11:39:50;;;;;;;;;;;3.70;99.90;;;;;;5041838;28;19913;-91
2021/11/27 11:42:16;;;;;;;;;;;3.60;99.90;;;;;;5046058;28;19909;-93
2021/11/27 11:44:42;;;;;;;;;;;3.60;99.90;;;;;;5049801;28;19990;-88
2021/11/27 11:47:08;;;;;;;;;;;3.60;99.90;;;;;;5067628;28;19971;-90
2021/11/27 11:49:35;;;;;;;;;;;3.60;99.90;;;;;;5046176;28;19983;-89
2021/11/27 11:52:06;;;;;;;;;;;3.60;99.90;;;;;;5046567;28;19917;-92
2021/11/27 11:54:32;;;;;;;;;;;3.50;99.90;;;;;;5044457;28;20216;-93
2021/11/27 11:57:04;;;;;;;;;;;3.50;99.90;;;;;;5045620;28;19921;-90
2021/11/27 11:59:32;;;;;;;;;;;3.50;99.90;;;;;;5049451;28;20261;-86
2021/11/27 12:02:36;;;;;;;;;;;3.50;99.90;;;;;;5086724;22;19929;-94
2021/11/27 12:05:06;;;;;;;;;;;3.50;99.90;;;;;;5062973;28;19916;-88
2021/11/27 12:07:40;;;;;;;;;;;3.50;99.90;;;;;;5069882;28;19991;-93
2021/11/27 12:10:12;;;;;;;;;;;3.40;99.90;;;;;;5073853;28;19927;-92
2021/11/27 12:12:38;;;;;;;;;;;3.50;99.90;;;;;;5074328;28;19912;-95
2021/11/27 12:15:04;;;;;;;;;;;3.50;99.90;;;;;;5075814;28;20007;-84
2021/11/27 12:17:31;;;;;;;;;;;3.50;99.90;;;;;;5074326;28;20011;-94
2021/11/27 12:20:00;;;;;;;;;;;3.50;99.90;;;;;;5073887;28;20264;-88
2021/11/27 12:22:27;;;;;;;;;;;3.50;99.90;;;;;;5064784;28;19916;-74
2021/11/27 12:25:10;;;;;;;;;;;3.50;99.90;;;;;;5063011;28;19961;-75
2021/11/27 12:28:07;;;;;;;;;;;3.50;99.90;;;;;;5066154;28;20003;-74
2021/11/27 12:30:32;;;;;;;;;;;3.40;99.90;;;;;;5046889;28;19916;-74
2021/11/27 12:32:58;;;;;;;;;;;3.40;99.90;;;;;;5063792;28;20322;-74
2021/11/27 12:35:30;;;;;;;;;;;3.40;99.90;;;;;;5061138;28;20031;-74
2021/11/27 12:38:08;;;;;;;;;;;3.40;99.90;;;;;;5062837;28;19965;-74
2021/11/27 12:40:38;;;;;;;;;;;3.30;99.90;;;;;;5062891;28;19922;-74
2021/11/27 12:43:14;;;;;;;;;;;3.30;99.90;;;;;;5065101;28;19921;-74
2021/11/27 12:45:41;;;;;;;;;;;3.30;99.90;;;;;;5066435;28;19960;-73
2021/11/27 12:48:26;;;;;;;;;;;3.20;99.90;;;;;;5070895;28;19912;-74
2021/11/27 12:51:10;;;;;;;;;;;3.30;99.90;;;;;;5066387;28;20014;-75
2021/11/27 12:53:35;;;;;;;;;;;3.30;99.90;;;;;;5066021;28;19924;-75
2021/11/27 12:56:01;;;;;;;;;;;3.30;99.90;;;;;;5065060;28;19920;-74
2021/11/27 12:58:29;;;;;;;;;;;3.30;99.90;;;;;;5066597;28;19919;-75
2021/11/27 13:00:54;;;;;;;;;;;3.30;99.90;;;;;;5065580;28;20007;-74
2021/11/27 13:03:20;;;;;;;;;;;3.30;99.90;;;;;;5065028;28;20008;-75
2021/11/27 13:05:46;;;;;;;;;;;3.30;99.90;;;;;;5064263;28;19923;-74
2021/11/27 13:08:11;;;;;;;;;;;3.30;99.90;;;;;;5062654;28;20374;-76
2021/11/27 13:10:42;;;;;;;;;;;3.30;99.90;;;;;;5063027;28;19919;-74
2021/11/27 13:13:16;;;;;;;;;;;3.30;99.90;;;;;;5065478;28;20243;-74
2021/11/27 13:15:42;;;;;;;;;;;3.20;99.90;;;;;;5064242;28;20454;-73
2021/11/27 13:18:17;;;;;;;;;;;3.20;99.90;;;;;;5066801;28;19916;-75
2021/11/27 13:20:48;;;;;;;;;;;3.10;99.90;;;;;;5062370;28;19924;-74
2021/11/27 13:23:18;;;;;;;;;;;3.10;99.90;;;;;;5064984;28;20323;-74
2021/11/27 13:25:45;;;;;;;;;;;3.10;99.90;;;;;;5066243;28;19924;-74
2021/11/27 13:28:28;;;;;;;;;;;3.10;99.90;;;;;;5062988;28;20011;-75
2021/11/27 13:30:55;;;;;;;;;;;3.00;99.90;;;;;;5055925;28;19917;-73
2021/11/27 13:33:21;;;;;;;;;;;3.00;99.90;;;;;;5065458;28;19920;-74
2021/11/27 13:35:47;;;;;;;;;;;3.00;99.90;;;;;;5066138;28;19932;-74
2021/11/27 13:38:24;;;;;;;;;;;3.00;99.90;;;;;;5065397;28;19916;-74
2021/11/27 13:40:50;;;;;;;;;;;3.00;99.90;;;;;;5055361;28;19951;-74
2021/11/27 13:43:15;;;;;;;;;;;3.00;99.90;;;;;;5062288;28;20401;-74
2021/11/27 13:45:41;;;;;;;;;;;3.00;99.90;;;;;;5063939;28;19919;-74
2021/11/27 13:48:07;;;;;;;;;;;3.00;99.90;;;;;;5063393;28;20050;-74
2021/11/27 13:50:50;;;;;;;;;;;2.90;99.90;;;;;;5064244;28;20220;-74
2021/11/27 13:53:16;;;;;;;;;;;2.90;99.90;;;;;;5056503;28;19917;-75
2021/11/27 13:55:52;;;;;;;;;;;2.90;99.90;;;;;;5068545;28;19934;-74
2021/11/27 13:58:19;;;;;;;;;;;2.90;99.90;;;;;;5073561;28;19912;-74
2021/11/27 14:00:45;;;;;;;;;;;2.90;99.90;;;;;;5075748;28;20315;-74
2021/11/27 14:03:16;;;;;;;;;;;2.90;99.90;;;;;;5085181;28;19947;-73
2021/11/27 14:05:48;;;;;;;;;;;2.90;99.90;;;;;;5075298;28;20318;-73
2021/11/27 14:08:24;;;;;;;;;;;2.90;99.90;;;;;;5072259;28;20219;-74
2021/11/27 14:11:09;;;;;;;;;;;2.90;99.90;;;;;;5089788;28;19919;-74
2021/11/27 14:13:38;;;;;;;;;;;2.90;99.90;;;;;;5074788;28;19916;-74
2021/11/27 14:16:04;;;;;;;;;;;3.00;99.90;;;;;;5070135;28;19916;-74
2021/11/27 14:18:31;;;;;;;;;;;2.90;99.90;;;;;;5073090;28;20360;-74
2021/11/27 14:21:01;;;;;;;;;;;3.00;99.90;;;;;;5074137;28;20309;-74
2021/11/27 14:23:37;;;;;;;;;;;2.90;99.90;;;;;;5068073;28;20308;-74
2021/11/27 14:26:03;;;;;;;;;;;3.00;99.90;;;;;;5067775;28;20379;-74
2021/11/27 14:28:29;;;;;;;;;;;3.00;99.90;;;;;;5073548;28;20016;-75
2021/11/27 14:30:55;;;;;;;;;;;2.90;99.90;;;;;;5066086;28;20239;-74